createdAt,value
2019-05-16T00:01:01.412Z,13.47
2019-05-16T00:04:08.666Z,13.03
2019-05-16T00:07:14.778Z,13.20
2019-05-16T00:10:20.445Z,10.90
2019-05-16T00:13:28.038Z,11.73
2019-05-16T00:16:34.004Z,9.73
2019-05-16T00:19:39.718Z,10.13
2019-05-16T00:22:45.437Z,11.20
2019-05-16T00:25:51.096Z,11.90
2019-05-16T00:28:58.963Z,10.03
2019-05-16T00:32:04.429Z,10.40
2019-05-16T00:35:11.155Z,9.93
2019-05-16T00:38:18.315Z,9.57
2019-05-16T00:41:24.139Z,9.83
2019-05-16T00:44:29.882Z,8.77
2019-05-16T00:47:35.932Z,11.37
2019-05-16T00:50:41.766Z,11.63
2019-05-16T00:53:48.372Z,11.43
2019-05-16T00:56:54.738Z,10.63
2019-05-16T01:00:02.998Z,9.80
2019-05-16T01:03:08.677Z,12.83
2019-05-16T01:06:19.931Z,12.50
2019-05-16T01:09:22.133Z,14.57
2019-05-16T01:12:28.348Z,16.80
2019-05-16T01:15:34.336Z,15.80
2019-05-16T01:18:40.171Z,16.80
2019-05-16T01:21:48.241Z,21.27
2019-05-16T01:24:53.463Z,13.87
2019-05-16T01:27:59.189Z,12.43
2019-05-16T01:31:05.011Z,19.80
2019-05-16T01:34:10.775Z,16.70
2019-05-16T01:37:18.673Z,14.47
2019-05-16T01:40:24.378Z,19.87
2019-05-16T01:43:30.173Z,15.30
2019-05-16T01:46:35.887Z,15.77
2019-05-16T01:49:41.564Z,18.37
2019-05-16T01:52:48.653Z,17.47
2019-05-16T01:55:54.620Z,17.33
2019-05-16T01:59:00.501Z,18.67
2019-05-16T02:02:08.309Z,19.07
2019-05-16T02:05:13.975Z,17.53
2019-05-16T02:08:21.420Z,17.33
2019-05-16T02:11:28.495Z,17.90
2019-05-16T02:14:34.464Z,18.47
2019-05-16T02:17:40.217Z,17.83
2019-05-16T02:20:47.935Z,16.97
2019-05-16T02:23:53.485Z,21.77
2019-05-16T02:26:59.188Z,17.47
2019-05-16T02:30:05.274Z,17.23
2019-05-16T02:33:11.715Z,19.67
2019-05-16T02:36:21.262Z,20.07
2019-05-16T02:39:24.879Z,19.00
2019-05-16T02:42:31.298Z,18.80
2019-05-16T02:45:37.358Z,21.97
2019-05-16T02:48:43.273Z,23.63
2019-05-16T02:51:51.156Z,22.17
2019-05-16T02:55:00.593Z,22.10
2019-05-16T02:58:04.916Z,21.17
2019-05-16T03:01:11.914Z,17.80
2019-05-16T03:04:17.623Z,18.83
2019-05-16T03:07:37.713Z,19.13
2019-05-16T03:10:32.330Z,16.37
2019-05-16T03:13:42.274Z,22.80
2019-05-16T03:16:50.620Z,20.83
2019-05-16T03:20:01.519Z,19.67
2019-05-16T03:23:06.635Z,22.47
2019-05-16T03:26:13.407Z,18.97
2019-05-16T03:29:21.795Z,17.17
2019-05-16T03:32:26.569Z,21.23
2019-05-16T03:35:33.929Z,22.40
2019-05-16T03:38:41.523Z,20.73
2019-05-16T03:41:47.284Z,18.43
2019-05-16T03:44:53.823Z,19.23
2019-05-16T03:48:02.764Z,17.87
2019-05-16T03:51:06.914Z,19.07
2019-05-16T03:54:12.810Z,20.93
2019-05-16T03:57:21.165Z,24.67
2019-05-16T04:00:55.254Z,24.30
2019-05-16T04:04:01.868Z,26.97
2019-05-16T04:07:10.810Z,26.60
2019-05-16T04:10:15.282Z,26.30
2019-05-16T04:13:21.736Z,25.87
2019-05-16T04:16:31.434Z,27.73
2019-05-16T04:19:36.304Z,28.63
2019-05-16T04:22:42.048Z,32.77
2019-05-16T04:25:51.711Z,33.43
2019-05-16T04:28:55.192Z,38.33
2019-05-16T04:32:01.588Z,40.80
2019-05-16T04:35:10.948Z,42.73
2019-05-16T04:38:30.256Z,45.10
2019-05-16T04:41:22.419Z,42.67
2019-05-16T04:44:31.082Z,53.53
2019-05-16T04:47:35.630Z,51.93
2019-05-16T04:50:41.926Z,50.40
2019-05-16T04:53:50.713Z,51.57
2019-05-16T04:56:55.218Z,54.73
2019-05-16T05:00:02.261Z,50.17
2019-05-16T05:03:11.736Z,56.27
2019-05-16T05:06:16.077Z,53.33
2019-05-16T05:09:21.752Z,50.43
2019-05-16T05:12:27.417Z,46.90
2019-05-16T05:15:33.158Z,50.97
2019-05-16T05:18:40.888Z,51.97
2019-05-16T05:21:46.236Z,46.23
2019-05-16T05:24:52.103Z,48.00
2019-05-16T05:27:57.801Z,40.90
2019-05-16T05:31:03.676Z,36.10
2019-05-16T05:34:10.673Z,38.40
2019-05-16T05:37:16.875Z,39.00
2019-05-16T05:40:34.434Z,40.90
2019-05-16T05:43:41.337Z,34.67
2019-05-16T05:46:47.177Z,28.70
2019-05-16T05:49:52.866Z,36.27
2019-05-16T05:53:02.231Z,32.47
2019-05-16T05:56:11.154Z,32.97
2019-05-16T05:59:15.403Z,29.50
2019-05-16T06:02:21.082Z,29.27
2019-05-16T06:05:26.880Z,27.73
2019-05-16T06:08:32.599Z,28.07
2019-05-16T06:11:40.525Z,28.07
2019-05-16T06:14:45.656Z,29.03
2019-05-16T06:17:51.390Z,23.63
2019-05-16T06:20:57.098Z,21.80
2019-05-16T06:24:02.820Z,20.97
2019-05-16T06:27:09.805Z,24.80
2019-05-16T06:30:17.110Z,21.63
2019-05-16T06:33:22.887Z,21.83
2019-05-16T06:36:30.568Z,26.63
2019-05-16T06:39:42.071Z,23.37
2019-05-16T06:42:43.633Z,22.10
2019-05-16T06:45:51.249Z,29.53
2019-05-16T06:48:56.894Z,34.23
2019-05-16T06:52:02.609Z,31.13
2019-05-16T06:55:10.149Z,31.40
2019-05-16T06:58:15.896Z,29.23
2019-05-16T07:01:21.611Z,26.40
2019-05-16T07:04:27.385Z,27.07
2019-05-16T07:07:33.146Z,22.47
2019-05-16T07:10:39.744Z,13.87
2019-05-16T07:13:45.708Z,19.13
2019-05-16T07:16:51.383Z,14.43
2019-05-16T07:19:57.096Z,14.70
2019-05-16T07:23:02.820Z,12.30
2019-05-16T07:26:09.870Z,13.37
2019-05-16T07:29:15.926Z,12.20
2019-05-16T07:32:21.870Z,15.37
2019-05-16T07:35:27.541Z,13.13
2019-05-16T07:38:33.280Z,12.00
2019-05-16T07:41:40.151Z,19.30
2019-05-16T07:44:46.257Z,14.43
2019-05-16T07:47:51.939Z,13.53
2019-05-16T07:50:57.703Z,18.93
2019-05-16T07:54:03.376Z,15.83
2019-05-16T07:57:18.812Z,13.23
2019-05-16T08:00:16.664Z,13.30
2019-05-16T08:03:22.350Z,14.77
2019-05-16T08:06:33.699Z,15.27
2019-05-16T08:09:35.855Z,13.63
2019-05-16T08:12:41.518Z,12.23
2019-05-16T08:15:50.178Z,12.73
2019-05-16T08:18:54.765Z,13.17
2019-05-16T08:22:01.335Z,13.67
2019-05-16T08:25:07.459Z,13.60
2019-05-16T08:28:13.124Z,12.90
2019-05-16T08:31:21.407Z,15.37
2019-05-16T08:34:26.417Z,17.37
2019-05-16T08:37:41.342Z,14.87
2019-05-16T08:41:01.080Z,16.13
2019-05-16T08:43:46.976Z,14.97
2019-05-16T08:46:57.806Z,14.53
2019-05-16T08:50:00.725Z,14.80
2019-05-16T08:53:06.686Z,16.80
2019-05-16T08:56:13.248Z,18.33
2019-05-16T08:59:21.450Z,24.23
2019-05-16T09:02:33.551Z,21.13
2019-05-16T09:05:34.112Z,15.50
2019-05-16T09:08:39.900Z,22.33
2019-05-16T09:11:48.674Z,16.13
2019-05-16T09:14:53.323Z,19.03
2019-05-16T09:17:59.060Z,18.30
2019-05-16T09:21:07.218Z,16.50
2019-05-16T09:24:13.177Z,19.33
2019-05-16T09:27:19.120Z,18.17
2019-05-16T09:30:27.387Z,18.90
2019-05-16T09:33:32.507Z,17.47
2019-05-16T09:36:38.211Z,18.40
2019-05-16T09:39:48.318Z,17.13
2019-05-16T09:42:56.684Z,19.80
2019-05-16T09:46:03.935Z,17.23
2019-05-16T09:49:19.437Z,17.70
2019-05-16T09:52:16.580Z,16.50
2019-05-16T09:55:22.644Z,23.43
2019-05-16T09:58:28.351Z,18.60
2019-05-16T10:01:36.838Z,16.83
2019-05-16T10:04:41.667Z,18.93
2019-05-16T10:07:47.642Z,23.90
2019-05-16T10:10:53.320Z,17.73
2019-05-16T10:13:58.979Z,17.57
2019-05-16T10:17:04.723Z,16.67
2019-05-16T10:20:10.722Z,16.87
2019-05-16T10:23:18.098Z,21.30
2019-05-16T10:26:27.482Z,22.93
2019-05-16T10:29:31.474Z,19.07
2019-05-16T10:32:39.986Z,16.83
2019-05-16T10:35:47.925Z,17.53
2019-05-16T10:38:53.341Z,17.20
2019-05-16T10:41:59.284Z,19.73
2019-05-16T10:45:08.313Z,17.60
2019-05-16T10:48:12.601Z,16.57
2019-05-16T10:51:18.350Z,16.93
2019-05-16T10:54:24.203Z,18.13
2019-05-16T10:57:30.198Z,33.47
2019-05-16T11:01:05.436Z,16.63
2019-05-16T11:03:43.897Z,16.80
2019-05-16T11:06:49.603Z,15.43
2019-05-16T11:10:02.660Z,20.27
2019-05-16T11:13:02.893Z,17.80
2019-05-16T11:16:10.084Z,22.20
2019-05-16T11:19:21.246Z,18.43
2019-05-16T11:22:29.546Z,18.87
2019-05-16T11:25:36.717Z,21.17
2019-05-16T11:28:42.536Z,16.70
2019-05-16T11:31:48.255Z,19.40
2019-05-16T11:34:54.048Z,15.93
2019-05-16T11:37:59.850Z,17.33
2019-05-16T11:41:07.368Z,20.70
2019-05-16T11:44:13.394Z,17.27
2019-05-16T11:47:19.376Z,18.23
2019-05-16T11:50:27.879Z,18.10
2019-05-16T11:53:33.539Z,18.23
2019-05-16T11:56:39.258Z,18.43
2019-05-16T11:59:47.090Z,18.83
2019-05-16T12:02:53.405Z,21.67
2019-05-16T12:05:59.095Z,22.23
2019-05-16T12:09:06.810Z,23.40
2019-05-16T12:12:12.757Z,19.90
2019-05-16T12:15:20.151Z,18.53
2019-05-16T12:18:26.540Z,17.30
2019-05-16T12:21:32.500Z,20.27
2019-05-16T12:24:41.285Z,21.50
2019-05-16T12:27:48.128Z,21.63
2019-05-16T12:30:53.148Z,18.27
2019-05-16T12:33:59.765Z,22.03
2019-05-16T12:37:07.431Z,20.67
2019-05-16T12:40:16.991Z,20.30
2019-05-16T12:43:22.853Z,17.67
2019-05-16T12:46:28.910Z,24.33
2019-05-16T12:49:34.686Z,18.07
2019-05-16T12:52:40.503Z,18.53
2019-05-16T12:55:47.544Z,19.10
2019-05-16T12:58:54.587Z,15.87
2019-05-16T13:02:00.306Z,19.23
2019-05-16T13:05:06.277Z,17.30
2019-05-16T13:08:12.098Z,17.40
2019-05-16T13:11:17.907Z,30.47
2019-05-16T13:14:23.605Z,22.67
2019-05-16T13:17:29.506Z,17.03
2019-05-16T13:20:38.237Z,25.00
2019-05-16T13:23:42.772Z,22.60
2019-05-16T13:26:48.559Z,20.10
2019-05-16T13:29:54.347Z,18.47
2019-05-16T13:33:00.045Z,19.03
2019-05-16T13:36:07.482Z,21.27
2019-05-16T13:39:13.593Z,18.60
2019-05-16T13:42:19.411Z,17.40
2019-05-16T13:45:27.195Z,17.90
2019-05-16T13:48:32.619Z,18.27
2019-05-16T13:51:38.288Z,17.40
2019-05-16T13:54:44.129Z,18.70
2019-05-16T13:57:49.809Z,19.37
2019-05-16T14:00:57.155Z,18.87
2019-05-16T14:04:03.129Z,17.47
2019-05-16T14:07:11.159Z,16.20
2019-05-16T14:10:18.185Z,17.13
2019-05-16T14:13:24.344Z,18.47
2019-05-16T14:16:33.072Z,25.90
2019-05-16T14:19:38.817Z,17.77
2019-05-16T14:22:44.564Z,18.30
2019-05-16T14:25:50.269Z,19.17
2019-05-16T14:28:57.637Z,18.03
2019-05-16T14:32:03.551Z,19.00
2019-05-16T14:35:09.835Z,13.73
2019-05-16T14:38:18.088Z,17.07
2019-05-16T14:41:28.054Z,22.90
2019-05-16T14:44:53.250Z,17.33
2019-05-16T14:47:47.297Z,20.23
2019-05-16T14:50:53.124Z,16.47
2019-05-16T14:53:59.094Z,18.83
2019-05-16T14:57:05.047Z,15.10
2019-05-16T15:00:14.096Z,19.17
2019-05-16T15:03:20.149Z,16.63
2019-05-16T15:06:27.542Z,15.23
2019-05-16T15:09:33.465Z,18.00
2019-05-16T15:12:43.146Z,15.13
2019-05-16T15:15:49.005Z,17.13
2019-05-16T15:18:57.398Z,14.07
2019-05-16T15:22:02.634Z,16.73
2019-05-16T15:25:09.824Z,18.40
2019-05-16T15:28:17.209Z,17.57
2019-05-16T15:31:22.932Z,17.87
2019-05-16T15:34:30.313Z,13.70
2019-05-16T15:37:37.217Z,17.63
2019-05-16T15:40:43.407Z,17.47
2019-05-16T15:43:49.080Z,21.50
2019-05-16T15:46:56.638Z,28.63
2019-05-16T15:50:02.435Z,20.50
2019-05-16T15:53:08.365Z,13.00
2019-05-16T15:56:14.045Z,13.90
2019-05-16T15:59:20.044Z,18.80
2019-05-16T16:02:27.241Z,13.37
2019-05-16T16:05:33.038Z,17.10
2019-05-16T16:08:38.861Z,16.13
2019-05-16T16:11:44.725Z,13.00
2019-05-16T16:14:50.520Z,14.50
2019-05-16T16:17:57.385Z,9.37
2019-05-16T16:21:03.347Z,12.03
2019-05-16T16:24:09.464Z,23.53
2019-05-16T16:27:19.236Z,12.90
2019-05-16T16:30:27.773Z,7.20
2019-05-16T16:33:37.394Z,11.23
2019-05-16T16:36:43.401Z,8.13
2019-05-16T16:39:49.117Z,7.23
2019-05-16T16:42:56.813Z,13.60
2019-05-16T16:46:08.646Z,8.77
2019-05-16T16:49:10.080Z,8.40
2019-05-16T16:52:16.734Z,7.93
2019-05-16T16:55:22.811Z,7.77
2019-05-16T16:58:31.571Z,6.77
2019-05-16T17:01:39.998Z,8.40
2019-05-16T17:04:51.173Z,6.03
2019-05-16T17:07:53.027Z,4.23
2019-05-16T17:10:58.746Z,6.60
2019-05-16T17:14:06.842Z,7.30
2019-05-16T17:17:12.260Z,6.70
2019-05-16T17:20:19.445Z,6.43
2019-05-16T17:23:26.711Z,9.43
2019-05-16T17:26:32.533Z,11.80
2019-05-16T17:29:38.494Z,7.80
2019-05-16T17:32:44.503Z,7.23
2019-05-16T17:35:53.074Z,5.57
2019-05-16T17:38:58.797Z,5.70
2019-05-16T17:42:04.592Z,7.60
2019-05-16T17:45:10.888Z,5.67
2019-05-16T17:48:17.546Z,5.80
2019-05-16T17:51:23.483Z,5.27
2019-05-16T17:54:29.170Z,7.17
2019-05-16T17:57:36.965Z,6.37
2019-05-16T18:00:42.321Z,7.07
2019-05-16T18:03:48.109Z,7.43
2019-05-16T18:06:53.811Z,7.57
2019-05-16T18:09:59.584Z,7.67
2019-05-16T18:13:07.679Z,8.03
2019-05-16T18:16:12.790Z,11.63
2019-05-16T18:19:18.503Z,6.80
2019-05-16T18:22:24.229Z,5.23
2019-05-16T18:25:29.877Z,8.27
2019-05-16T18:28:37.868Z,6.00
2019-05-16T18:31:47.115Z,5.47
2019-05-16T18:34:52.231Z,9.20
2019-05-16T18:37:58.933Z,6.43
2019-05-16T18:41:04.807Z,4.83
2019-05-16T18:44:10.605Z,6.07
2019-05-16T18:47:17.890Z,4.63
2019-05-16T18:50:26.472Z,4.93
2019-05-16T18:53:33.479Z,5.20
2019-05-16T18:56:39.223Z,4.63
2019-05-16T18:59:46.219Z,7.10
2019-05-16T19:02:52.021Z,4.37
2019-05-16T19:05:57.813Z,4.57
2019-05-16T19:09:07.150Z,4.10
2019-05-16T19:12:13.212Z,4.40
2019-05-16T19:15:20.875Z,6.67
2019-05-16T19:18:26.668Z,5.27
2019-05-16T19:21:32.360Z,4.63
2019-05-16T19:24:38.184Z,4.17
2019-05-16T19:27:46.331Z,4.20
2019-05-16T19:30:57.020Z,5.27
2019-05-16T19:34:02.137Z,4.73
2019-05-16T19:37:07.859Z,5.23
2019-05-16T19:40:17.304Z,7.03
2019-05-16T19:43:23.162Z,8.37
2019-05-16T19:46:28.976Z,6.53
2019-05-16T19:49:36.869Z,5.87
2019-05-16T19:52:44.261Z,7.13
2019-05-16T19:55:50.174Z,10.07
2019-05-16T19:58:57.308Z,6.83
2019-05-16T20:02:04.020Z,5.37
2019-05-16T20:05:11.396Z,5.80
2019-05-16T20:08:17.625Z,5.23
2019-05-16T20:11:24.603Z,6.17
2019-05-16T20:14:30.482Z,13.80
2019-05-16T20:17:37.853Z,11.07
2019-05-16T20:20:47.278Z,10.50
2019-05-16T20:23:54.282Z,9.67
2019-05-16T20:27:00.051Z,8.77
2019-05-16T20:30:11.091Z,7.07
2019-05-16T20:33:17.926Z,8.03
2019-05-16T20:36:26.323Z,7.90
2019-05-16T20:39:31.574Z,9.40
2019-05-16T20:42:37.505Z,7.93
2019-05-16T20:45:47.658Z,7.43
2019-05-16T20:48:58.760Z,7.67
2019-05-16T20:52:02.502Z,10.47
2019-05-16T20:55:08.697Z,10.77
2019-05-16T20:58:16.302Z,9.00
2019-05-16T21:01:23.057Z,10.23
2019-05-16T21:04:28.765Z,7.70
2019-05-16T21:07:34.450Z,7.70
2019-05-16T21:10:40.242Z,8.37
2019-05-16T21:13:48.759Z,6.70
2019-05-16T21:16:53.526Z,7.37
2019-05-16T21:19:59.200Z,6.90
2019-05-16T21:23:07.152Z,5.70
2019-05-16T21:26:12.407Z,6.30
2019-05-16T21:29:19.577Z,10.47
2019-05-16T21:32:27.009Z,10.37
2019-05-16T21:35:32.999Z,9.60
2019-05-16T21:38:38.677Z,6.80
2019-05-16T21:41:44.394Z,8.23
2019-05-16T21:44:50.217Z,8.43
2019-05-16T21:47:56.768Z,10.20
2019-05-16T21:51:02.742Z,12.10
2019-05-16T21:54:08.575Z,18.03
2019-05-16T21:57:17.497Z,14.90
2019-05-16T22:00:28.894Z,18.07
2019-05-16T22:03:36.729Z,18.17
2019-05-16T22:06:42.864Z,11.03
2019-05-16T22:09:48.743Z,13.17
2019-05-16T22:12:56.882Z,11.43
2019-05-16T22:16:04.901Z,8.10
2019-05-16T22:19:10.182Z,9.97
2019-05-16T22:22:16.567Z,8.80
2019-05-16T22:25:22.398Z,8.47
2019-05-16T22:28:30.114Z,16.50
2019-05-16T22:31:36.664Z,9.23
2019-05-16T22:34:42.483Z,7.80
2019-05-16T22:37:55.255Z,7.87
2019-05-16T22:40:56.053Z,6.67
2019-05-16T22:44:01.934Z,6.63
2019-05-16T22:47:07.652Z,7.10
2019-05-16T22:50:13.680Z,9.57
2019-05-16T22:53:19.381Z,8.57
2019-05-16T22:56:26.164Z,8.77
2019-05-16T22:59:31.982Z,8.17
2019-05-16T23:02:37.810Z,8.87
2019-05-16T23:05:47.381Z,6.27
2019-05-16T23:08:50.927Z,6.00
2019-05-16T23:11:56.594Z,7.03
2019-05-16T23:15:02.415Z,5.90
2019-05-16T23:18:08.283Z,6.80
2019-05-16T23:21:13.954Z,8.13
2019-05-16T23:24:19.702Z,7.70
2019-05-16T23:27:27.278Z,9.63
2019-05-16T23:30:32.895Z,7.67
2019-05-16T23:33:38.572Z,6.90
2019-05-16T23:36:46.223Z,6.20
2019-05-16T23:39:51.707Z,7.47
2019-05-16T23:42:57.404Z,9.77
2019-05-16T23:46:03.143Z,8.90
2019-05-16T23:49:09.810Z,6.47
2019-05-16T23:52:16.805Z,7.37
2019-05-16T23:55:22.829Z,6.33
2019-05-16T23:58:29.508Z,6.07
